createdAt,value
2018-09-19T00:01:39.572Z,61.01
2018-09-19T00:04:08.088Z,60.79
2018-09-19T00:06:36.568Z,61.12
2018-09-19T00:09:07.392Z,61.17
2018-09-19T00:11:36.813Z,61.36
2018-09-19T00:14:05.439Z,61.27
2018-09-19T00:16:33.931Z,61.38
2018-09-19T00:19:02.511Z,61.90
2018-09-19T00:21:31.063Z,62.82
2018-09-19T00:24:00.607Z,63.47
2018-09-19T00:26:29.027Z,63.23
2018-09-19T00:28:57.512Z,63.71
2018-09-19T00:31:25.908Z,64.22
2018-09-19T00:33:54.883Z,64.71
2018-09-19T00:36:23.973Z,65.07
2018-09-19T00:38:52.472Z,65.37
2018-09-19T00:41:21.001Z,65.86
2018-09-19T00:43:49.494Z,66.55
2018-09-19T00:46:17.987Z,66.83
2018-09-19T00:48:46.696Z,67.51
2018-09-19T00:51:15.234Z,67.75
2018-09-19T00:53:44.108Z,67.42
2018-09-19T00:56:12.741Z,68.29
2018-09-19T00:58:41.580Z,68.47
2018-09-19T01:01:10.452Z,68.46
2018-09-19T01:03:38.876Z,68.04
2018-09-19T01:06:07.399Z,68.38
2018-09-19T01:08:36.317Z,68.92
2018-09-19T01:11:04.834Z,69.12
2018-09-19T01:13:34.560Z,70.19
2018-09-19T01:16:03.182Z,69.51
2018-09-19T01:18:31.987Z,69.96
2018-09-19T01:21:00.801Z,70.80
2018-09-19T01:23:29.291Z,70.44
2018-09-19T01:25:57.769Z,70.58
2018-09-19T01:28:27.172Z,71.42
2018-09-19T01:30:55.976Z,71.50
2018-09-19T01:33:25.131Z,72.49
2018-09-19T01:35:53.808Z,72.01
2018-09-19T01:38:22.317Z,73.01
2018-09-19T01:40:50.980Z,73.02
2018-09-19T01:43:19.614Z,73.01
2018-09-19T01:45:48.657Z,72.71
2018-09-19T01:48:17.140Z,73.72
2018-09-19T01:50:45.644Z,73.96
2018-09-19T01:53:14.157Z,74.47
2018-09-19T01:55:42.642Z,74.49
2018-09-19T01:58:11.282Z,74.33
2018-09-19T02:00:39.803Z,74.78
2018-09-19T02:03:08.338Z,74.43
2018-09-19T02:05:37.153Z,74.91
2018-09-19T02:08:05.936Z,75.46
2018-09-19T02:10:34.343Z,75.40
2018-09-19T02:13:03.729Z,76.52
2018-09-19T02:15:32.348Z,76.72
2018-09-19T02:18:00.877Z,75.53
2018-09-19T02:20:30.008Z,76.62
2018-09-19T02:22:58.503Z,76.09
2018-09-19T02:25:26.945Z,77.02
2018-09-19T02:27:55.498Z,77.00
2018-09-19T02:30:23.931Z,77.14
2018-09-19T02:32:52.618Z,77.73
2018-09-19T02:35:21.125Z,77.40
2018-09-19T02:37:50.530Z,78.24
2018-09-19T02:40:19.213Z,78.39
2018-09-19T02:42:47.726Z,77.93
2018-09-19T02:45:16.171Z,77.75
2018-09-19T02:47:45.241Z,78.42
2018-09-19T02:50:14.206Z,78.79
2018-09-19T02:52:42.661Z,80.12
2018-09-19T02:55:11.141Z,80.02
2018-09-19T02:57:39.621Z,79.99
2018-09-19T03:00:08.071Z,80.24
2018-09-19T03:02:36.498Z,79.64
2018-09-19T03:05:04.930Z,80.25
2018-09-19T03:07:33.292Z,79.84
2018-09-19T03:10:01.703Z,80.34
2018-09-19T03:12:30.266Z,80.25
2018-09-19T03:14:58.656Z,80.40
2018-09-19T03:17:27.143Z,80.59
2018-09-19T03:19:55.682Z,80.87
2018-09-19T03:22:24.180Z,80.60
2018-09-19T03:24:52.704Z,81.84
2018-09-19T03:27:21.351Z,81.19
2018-09-19T03:29:49.944Z,81.36
2018-09-19T03:32:18.461Z,81.89
2018-09-19T03:34:47.340Z,82.22
2018-09-19T03:37:15.901Z,82.47
2018-09-19T03:39:44.472Z,82.36
2018-09-19T03:42:12.943Z,82.12
2018-09-19T03:44:41.484Z,82.05
2018-09-19T03:47:10.102Z,82.21
2018-09-19T03:49:38.555Z,82.21
2018-09-19T03:52:07.063Z,82.45
2018-09-19T03:54:35.567Z,82.60
2018-09-19T03:57:04.040Z,83.23
2018-09-19T03:59:32.512Z,82.64
2018-09-19T04:02:00.904Z,82.75
2018-09-19T04:04:29.990Z,83.06
2018-09-19T04:06:58.364Z,84.05
2018-09-19T04:09:26.847Z,83.85
2018-09-19T04:11:55.404Z,84.32
2018-09-19T04:14:23.947Z,84.75
2018-09-19T04:16:52.518Z,85.43
2018-09-19T04:19:20.985Z,84.75
2018-09-19T04:21:53.398Z,85.21
2018-09-19T04:24:21.874Z,85.41
2018-09-19T04:26:50.546Z,84.61
2018-09-19T04:29:19.744Z,84.60
2018-09-19T04:31:48.796Z,85.23
2018-09-19T04:34:17.688Z,84.84
2018-09-19T04:36:46.400Z,85.57
2018-09-19T04:39:15.062Z,86.19
2018-09-19T04:41:43.761Z,86.18
2018-09-19T04:44:12.344Z,86.26
2018-09-19T04:46:40.929Z,86.31
2018-09-19T04:49:11.041Z,86.48
2018-09-19T04:51:40.613Z,87.14
2018-09-19T04:54:09.420Z,86.86
2018-09-19T04:56:38.519Z,86.89
2018-09-19T04:59:07.244Z,86.51
2018-09-19T05:01:35.788Z,86.13
2018-09-19T05:04:05.441Z,86.90
2018-09-19T05:06:34.315Z,86.57
2018-09-19T05:09:03.062Z,86.23
2018-09-19T05:11:31.803Z,86.18
2018-09-19T05:14:00.370Z,86.75
2018-09-19T05:16:28.829Z,86.85
2018-09-19T05:18:57.376Z,87.06
2018-09-19T05:21:26.834Z,86.60
2018-09-19T05:23:56.012Z,86.86
2018-09-19T05:26:24.629Z,86.80
2018-09-19T05:28:53.076Z,86.81
2018-09-19T05:31:21.751Z,87.10
2018-09-19T05:33:50.253Z,87.78
2018-09-19T05:36:18.665Z,87.02
2018-09-19T05:38:47.354Z,86.49
2018-09-19T05:41:16.266Z,87.00
2018-09-19T05:43:45.067Z,86.40
2018-09-19T05:46:13.579Z,86.84
2018-09-19T05:48:42.978Z,86.72
2018-09-19T05:51:11.809Z,85.47
2018-09-19T05:53:40.443Z,86.34
2018-09-19T05:56:09.066Z,85.47
2018-09-19T05:58:37.691Z,85.05
2018-09-19T06:01:06.353Z,84.98
2018-09-19T06:03:34.960Z,85.10
2018-09-19T06:06:04.302Z,84.23
2018-09-19T06:08:32.947Z,83.73
2018-09-19T06:11:01.652Z,82.87
2018-09-19T06:13:30.151Z,81.96
2018-09-19T06:15:58.858Z,81.98
2018-09-19T06:18:27.417Z,81.87
2018-09-19T06:20:55.987Z,81.48
2018-09-19T06:23:24.474Z,80.61
2018-09-19T06:25:53.084Z,80.87
2018-09-19T06:28:21.552Z,80.45
2018-09-19T06:30:50.012Z,79.55
2018-09-19T06:33:19.323Z,80.25
2018-09-19T06:35:48.277Z,80.34
2018-09-19T06:38:17.414Z,79.81
2018-09-19T06:40:45.930Z,77.76
2018-09-19T06:43:15.203Z,77.53
2018-09-19T06:45:43.861Z,76.65
2018-09-19T06:48:13.406Z,77.18
2018-09-19T06:50:41.964Z,78.01
2018-09-19T06:53:10.516Z,78.00
2018-09-19T06:55:39.018Z,77.79
2018-09-19T06:58:07.537Z,75.96
2018-09-19T07:00:36.094Z,75.32
2018-09-19T07:03:04.775Z,76.59
2018-09-19T07:05:33.385Z,76.09
2018-09-19T07:08:01.944Z,74.29
2018-09-19T07:10:31.140Z,74.31
2018-09-19T07:12:59.669Z,72.94
2018-09-19T07:15:28.279Z,72.60
2018-09-19T07:17:56.916Z,71.88
2018-09-19T07:20:25.544Z,71.30
2018-09-19T07:22:54.159Z,71.09
2018-09-19T07:25:22.899Z,70.23
2018-09-19T07:27:52.227Z,70.70
2018-09-19T07:30:21.557Z,69.04
2018-09-19T07:32:50.108Z,69.54
2018-09-19T07:35:18.738Z,69.18
2018-09-19T07:37:47.294Z,68.09
2018-09-19T07:40:16.010Z,65.70
2018-09-19T07:42:44.622Z,64.78
2018-09-19T07:45:13.219Z,65.23
2018-09-19T07:47:41.696Z,63.81
2018-09-19T07:50:10.310Z,62.93
2018-09-19T07:52:39.111Z,63.66
2018-09-19T07:55:07.864Z,62.41
2018-09-19T07:57:36.929Z,64.31
2018-09-19T08:00:05.681Z,62.73
2018-09-19T08:02:34.212Z,64.14
2018-09-19T08:05:02.733Z,61.11
2018-09-19T08:07:31.195Z,62.37
2018-09-19T08:09:59.675Z,61.91
2018-09-19T08:12:28.337Z,58.42
2018-09-19T08:14:57.064Z,57.50
2018-09-19T08:17:25.613Z,59.09
2018-09-19T08:19:54.422Z,57.84
2018-09-19T08:22:22.899Z,54.60
2018-09-19T08:24:51.448Z,55.53
2018-09-19T08:27:20.019Z,54.79
2018-09-19T08:29:48.991Z,55.41
2018-09-19T08:32:17.522Z,52.49
2018-09-19T08:34:46.142Z,52.69
2018-09-19T08:37:14.696Z,53.23
2018-09-19T08:39:43.240Z,53.86
2018-09-19T08:42:11.755Z,52.54
2018-09-19T08:44:40.390Z,52.41
2018-09-19T08:47:08.940Z,53.69
2018-09-19T08:49:37.481Z,54.01
2018-09-19T08:52:05.997Z,54.65
2018-09-19T08:54:34.650Z,53.19
2018-09-19T08:57:03.841Z,52.62
2018-09-19T08:59:32.439Z,54.34
2018-09-19T09:02:01.414Z,55.50
2018-09-19T09:04:30.190Z,55.10
2018-09-19T09:06:58.691Z,53.39
2018-09-19T09:09:27.150Z,55.64
2018-09-19T09:11:55.611Z,53.07
2018-09-19T09:14:25.135Z,53.48
2018-09-19T09:16:53.644Z,55.43
2018-09-19T09:19:22.094Z,53.79
2018-09-19T09:21:50.812Z,53.84
2018-09-19T09:24:19.267Z,54.12
2018-09-19T09:26:48.602Z,54.86
2018-09-19T09:29:17.003Z,53.56
2018-09-19T09:31:45.480Z,51.85
2018-09-19T09:34:14.132Z,52.26
2018-09-19T09:36:42.775Z,51.82
2018-09-19T09:39:11.210Z,53.06
2018-09-19T09:41:39.693Z,52.68
2018-09-19T09:44:08.450Z,52.55
2018-09-19T09:46:37.022Z,52.17
2018-09-19T09:49:05.827Z,52.13
2018-09-19T09:51:34.305Z,53.70
2018-09-19T09:54:02.868Z,53.70
2018-09-19T09:56:31.412Z,52.69
2018-09-19T09:58:59.980Z,52.58
2018-09-19T10:01:28.691Z,53.52
2018-09-19T10:03:57.129Z,53.72
2018-09-19T10:06:25.804Z,53.12
2018-09-19T10:08:54.525Z,53.56
2018-09-19T10:11:23.017Z,54.15
2018-09-19T10:13:51.489Z,53.14
2018-09-19T10:16:20.327Z,53.02
2018-09-19T10:18:48.809Z,50.77
2018-09-19T10:21:17.268Z,52.31
2018-09-19T10:23:45.858Z,53.16
2018-09-19T10:26:14.374Z,52.91
2018-09-19T10:28:42.904Z,51.47
2018-09-19T10:31:11.442Z,52.24
2018-09-19T10:33:40.071Z,52.07
2018-09-19T10:36:08.622Z,53.52
2018-09-19T10:38:37.172Z,52.14
2018-09-19T10:41:05.695Z,51.54
2018-09-19T10:43:34.157Z,50.22
2018-09-19T10:46:02.907Z,51.87
2018-09-19T10:48:31.424Z,51.66
2018-09-19T10:50:59.937Z,50.45
2018-09-19T10:53:28.371Z,51.82
2018-09-19T10:55:56.949Z,52.71
2018-09-19T10:58:25.480Z,51.96
2018-09-19T11:00:53.930Z,50.63
2018-09-19T11:03:22.399Z,51.15
2018-09-19T11:05:50.909Z,51.29
2018-09-19T11:08:20.519Z,49.99
2018-09-19T11:10:49.343Z,50.13
2018-09-19T11:13:18.186Z,49.26
2018-09-19T11:15:46.863Z,50.29
2018-09-19T11:18:15.501Z,48.54
2018-09-19T11:20:44.106Z,49.46
2018-09-19T11:23:12.951Z,50.11
2018-09-19T11:25:41.780Z,49.31
2018-09-19T11:28:10.909Z,49.61
2018-09-19T11:30:39.676Z,49.05
2018-09-19T11:33:08.191Z,49.40
2018-09-19T11:35:37.050Z,48.54
2018-09-19T11:38:05.831Z,48.63
2018-09-19T11:40:34.479Z,49.75
2018-09-19T11:43:03.163Z,48.75
2018-09-19T11:45:31.772Z,47.98
2018-09-19T11:48:00.490Z,47.47
2018-09-19T11:50:28.990Z,46.67
2018-09-19T11:52:57.868Z,46.64
2018-09-19T11:55:26.578Z,45.70
2018-09-19T11:57:55.878Z,46.14
2018-09-19T12:00:24.549Z,47.19
2018-09-19T12:02:53.336Z,46.69
2018-09-19T12:05:22.223Z,45.72
2018-09-19T12:07:50.949Z,45.65
2018-09-19T12:10:19.689Z,44.41
2018-09-19T12:12:48.380Z,45.50
2018-09-19T12:15:17.242Z,44.94
2018-09-19T12:17:45.933Z,44.14
2018-09-19T12:20:14.712Z,44.65
2018-09-19T12:22:44.086Z,42.96
2018-09-19T12:25:12.846Z,42.90
2018-09-19T12:27:41.942Z,42.84
2018-09-19T12:30:10.916Z,44.42
2018-09-19T12:32:39.578Z,44.21
2018-09-19T12:35:08.303Z,43.51
2018-09-19T12:37:37.148Z,44.21
2018-09-19T12:40:06.547Z,45.08
2018-09-19T12:42:35.124Z,43.10
2018-09-19T12:45:04.540Z,43.97
2018-09-19T12:47:33.210Z,43.34
2018-09-19T12:50:01.837Z,43.16
2018-09-19T12:52:30.606Z,43.13
2018-09-19T12:54:59.213Z,44.07
2018-09-19T12:57:28.506Z,44.20
2018-09-19T12:59:57.818Z,43.78
2018-09-19T13:02:26.479Z,43.15
2018-09-19T13:04:55.140Z,43.06
2018-09-19T13:07:23.923Z,42.89
2018-09-19T13:09:52.733Z,43.35
2018-09-19T13:12:21.452Z,44.40
2018-09-19T13:14:51.152Z,44.04
2018-09-19T13:17:21.777Z,43.87
2018-09-19T13:19:50.640Z,43.21
2018-09-19T13:22:19.263Z,44.38
2018-09-19T13:24:48.125Z,43.94
2018-09-19T13:27:17.642Z,44.84
2018-09-19T13:29:46.299Z,44.18
2018-09-19T13:32:15.084Z,44.86
2018-09-19T13:34:44.571Z,45.22
2018-09-19T13:37:13.359Z,43.83
2018-09-19T13:39:42.154Z,42.99
2018-09-19T13:42:10.841Z,42.89
2018-09-19T13:44:39.626Z,42.89
2018-09-19T13:47:08.414Z,43.20
2018-09-19T13:49:45.203Z,43.51
2018-09-19T13:52:13.817Z,44.09
2018-09-19T13:54:42.498Z,42.94
2018-09-19T13:57:11.184Z,42.77
2018-09-19T13:59:39.825Z,43.60
2018-09-19T14:02:08.608Z,42.88
2018-09-19T14:04:37.221Z,43.01
2018-09-19T14:07:05.921Z,44.69
2018-09-19T14:09:34.696Z,44.02
2018-09-19T14:12:04.039Z,43.83
2018-09-19T14:14:32.912Z,42.95
2018-09-19T14:17:01.601Z,43.74
2018-09-19T14:19:30.139Z,43.98
2018-09-19T14:21:58.673Z,44.19
2018-09-19T14:24:27.238Z,44.52
2018-09-19T14:26:56.502Z,43.49
2018-09-19T14:29:25.712Z,44.10
2018-09-19T14:31:54.236Z,44.31
2018-09-19T14:34:22.847Z,44.16
2018-09-19T14:36:51.412Z,44.68
2018-09-19T14:39:20.017Z,44.74
2018-09-19T14:41:48.674Z,44.71
2018-09-19T14:44:17.501Z,45.16
2018-09-19T14:46:46.225Z,45.57
2018-09-19T14:49:14.840Z,45.21
2018-09-19T14:51:43.538Z,44.52
2018-09-19T14:54:13.520Z,46.22
2018-09-19T14:56:42.033Z,45.92
2018-09-19T14:59:10.728Z,44.38
2018-09-19T15:01:39.999Z,45.33
2018-09-19T15:04:08.693Z,45.42
2018-09-19T15:06:37.341Z,45.76
2018-09-19T15:09:08.954Z,45.99
2018-09-19T15:11:37.561Z,45.34
2018-09-19T15:14:06.301Z,44.69
2018-09-19T15:16:35.516Z,45.24
2018-09-19T15:19:04.134Z,44.26
2018-09-19T15:21:32.916Z,45.58
2018-09-19T15:24:02.156Z,45.30
2018-09-19T15:26:30.676Z,45.85
2018-09-19T15:28:59.350Z,44.87
2018-09-19T15:31:28.901Z,45.62
2018-09-19T15:33:57.579Z,44.85
2018-09-19T15:36:26.402Z,45.12
2018-09-19T15:38:54.898Z,46.13
2018-09-19T15:41:23.423Z,45.95
2018-09-19T15:43:52.902Z,45.79
2018-09-19T15:46:22.608Z,45.47
2018-09-19T15:48:52.871Z,46.23
2018-09-19T15:51:22.521Z,46.34
2018-09-19T15:53:53.585Z,45.92
2018-09-19T15:56:23.219Z,45.85
2018-09-19T15:58:52.799Z,45.62
2018-09-19T16:01:22.615Z,46.82
2018-09-19T16:03:52.928Z,46.53
2018-09-19T16:06:22.428Z,46.92
2018-09-19T16:08:51.110Z,47.80
2018-09-19T16:11:20.010Z,50.62
2018-09-19T16:13:48.811Z,47.71
2018-09-19T16:16:18.062Z,47.83
2018-09-19T16:18:47.639Z,52.70
2018-09-19T16:21:18.557Z,48.34
2018-09-19T16:23:49.350Z,47.78
2018-09-19T16:26:20.896Z,48.55
2018-09-19T16:28:49.815Z,47.75
2018-09-19T16:31:18.685Z,47.21
2018-09-19T16:33:49.858Z,48.24
2018-09-19T16:36:19.597Z,48.19
2018-09-19T16:38:53.532Z,48.00
2018-09-19T16:41:22.885Z,48.48
2018-09-19T16:43:52.201Z,48.16
2018-09-19T16:46:23.356Z,48.93
2018-09-19T16:48:52.243Z,48.68
2018-09-19T16:51:30.172Z,48.92
2018-09-19T16:54:02.286Z,48.38
2018-09-19T16:56:33.900Z,48.71
2018-09-19T16:59:04.961Z,49.23
2018-09-19T17:01:34.055Z,49.18
2018-09-19T17:04:05.648Z,49.20
2018-09-19T17:06:40.577Z,51.00
2018-09-19T17:09:13.403Z,50.04
2018-09-19T17:11:43.881Z,50.01
2018-09-19T17:14:13.135Z,51.54
2018-09-19T17:16:42.444Z,52.59
2018-09-19T17:19:12.173Z,50.86
2018-09-19T17:21:42.873Z,55.64
2018-09-19T17:24:12.299Z,54.29
2018-09-19T17:26:41.476Z,54.51
2018-09-19T17:29:10.570Z,55.04
2018-09-19T17:31:39.492Z,58.29
2018-09-19T17:34:08.378Z,56.81
2018-09-19T17:36:37.203Z,58.11
2018-09-19T17:39:09.449Z,56.15
2018-09-19T17:41:38.749Z,59.11
2018-09-19T17:44:07.710Z,54.42
2018-09-19T17:46:38.124Z,55.02
2018-09-19T17:49:08.351Z,59.01
2018-09-19T17:51:37.578Z,59.12
2018-09-19T17:54:07.456Z,60.42
2018-09-19T17:56:37.157Z,57.98
2018-09-19T17:59:06.873Z,60.70
2018-09-19T18:01:36.600Z,60.04
2018-09-19T18:04:06.484Z,59.90
2018-09-19T18:06:35.393Z,60.21
2018-09-19T18:09:05.211Z,58.73
2018-09-19T18:11:34.179Z,62.19
2018-09-19T18:14:02.881Z,61.47
2018-09-19T18:16:32.710Z,61.82
2018-09-19T18:19:01.330Z,59.09
2018-09-19T18:21:30.052Z,61.33
2018-09-19T18:23:59.403Z,61.96
2018-09-19T18:26:28.542Z,61.87
2018-09-19T18:28:57.391Z,60.28
2018-09-19T18:31:27.284Z,62.71
2018-09-19T18:33:56.300Z,61.42
2018-09-19T18:36:25.152Z,62.81
2018-09-19T18:38:54.858Z,62.46
2018-09-19T18:41:23.572Z,61.46
2018-09-19T18:43:53.043Z,61.94
2018-09-19T18:46:23.466Z,63.79
2018-09-19T18:48:52.115Z,62.36
2018-09-19T18:51:20.812Z,64.04
2018-09-19T18:53:49.437Z,63.89
2018-09-19T18:56:19.220Z,64.57
2018-09-19T18:58:48.052Z,62.69
2018-09-19T19:01:16.469Z,63.56
2018-09-19T19:03:45.273Z,63.58
2018-09-19T19:06:14.916Z,63.29
2018-09-19T19:08:44.907Z,63.05
2018-09-19T19:11:15.066Z,63.92
2018-09-19T19:13:46.919Z,61.87
2018-09-19T19:16:16.624Z,62.69
2018-09-19T19:18:48.418Z,62.21
2018-09-19T19:21:17.160Z,63.24
2018-09-19T19:23:47.093Z,64.46
2018-09-19T19:26:16.241Z,64.52
2018-09-19T19:28:44.953Z,63.95
2018-09-19T19:31:13.810Z,63.40
2018-09-19T19:33:43.840Z,65.49
2018-09-19T19:36:13.042Z,64.04
2018-09-19T19:38:41.730Z,65.21
2018-09-19T19:41:10.413Z,65.17
2018-09-19T19:43:39.128Z,65.53
2018-09-19T19:46:07.818Z,64.73
2018-09-19T19:48:36.567Z,65.65
2018-09-19T19:51:05.220Z,64.60
2018-09-19T19:53:34.017Z,64.20
2018-09-19T19:56:02.811Z,65.06
2018-09-19T19:58:31.708Z,64.34
2018-09-19T20:01:00.486Z,64.07
2018-09-19T20:03:29.193Z,64.91
2018-09-19T20:05:58.063Z,65.20
2018-09-19T20:08:26.741Z,65.29
2018-09-19T20:10:55.451Z,64.87
2018-09-19T20:13:24.115Z,64.86
2018-09-19T20:15:53.059Z,65.14
2018-09-19T20:18:21.487Z,65.08
2018-09-19T20:20:49.908Z,65.18
2018-09-19T20:23:18.540Z,65.32
2018-09-19T20:25:47.278Z,65.47
2018-09-19T20:28:15.965Z,65.84
2018-09-19T20:30:44.603Z,65.61
2018-09-19T20:33:13.132Z,66.06
2018-09-19T20:35:44.179Z,65.29
2018-09-19T20:38:17.533Z,65.57
2018-09-19T20:40:52.704Z,65.92
2018-09-19T20:43:26.721Z,66.05
2018-09-19T20:46:02.344Z,66.32
2018-09-19T20:48:37.064Z,66.88
2018-09-19T20:51:09.400Z,66.33
2018-09-19T20:53:41.451Z,66.81
2018-09-19T20:56:14.277Z,67.19
2018-09-19T20:58:42.770Z,67.59
2018-09-19T21:01:11.415Z,67.07
2018-09-19T21:03:39.907Z,66.91
2018-09-19T21:06:08.376Z,66.98
2018-09-19T21:08:37.354Z,67.14
2018-09-19T21:11:06.046Z,67.29
2018-09-19T21:13:34.626Z,67.34
2018-09-19T21:16:03.099Z,67.39
2018-09-19T21:18:31.615Z,67.51
2018-09-19T21:21:00.108Z,67.63
2018-09-19T21:23:28.718Z,67.87
2018-09-19T21:25:57.215Z,68.25
2018-09-19T21:28:25.734Z,68.56
2018-09-19T21:30:54.410Z,70.14
2018-09-19T21:33:22.882Z,69.68
2018-09-19T21:35:51.581Z,69.57
2018-09-19T21:38:20.024Z,70.57
2018-09-19T21:40:48.515Z,69.79
2018-09-19T21:43:17.311Z,69.72
2018-09-19T21:45:46.808Z,69.81
2018-09-19T21:48:15.309Z,69.52
2018-09-19T21:50:43.777Z,69.61
2018-09-19T21:53:12.272Z,70.24
2018-09-19T21:55:40.724Z,69.90
2018-09-19T21:58:09.195Z,70.38
2018-09-19T22:00:37.731Z,70.55
2018-09-19T22:03:06.404Z,70.82
2018-09-19T22:05:34.857Z,71.07
2018-09-19T22:08:03.377Z,70.89
2018-09-19T22:10:31.932Z,70.79
2018-09-19T22:13:00.493Z,71.05
2018-09-19T22:15:29.046Z,70.74
2018-09-19T22:17:57.475Z,70.28
2018-09-19T22:20:25.974Z,70.24
2018-09-19T22:22:54.565Z,71.12
2018-09-19T22:25:23.096Z,71.18
2018-09-19T22:27:51.588Z,71.73
2018-09-19T22:30:20.375Z,71.97
2018-09-19T22:32:48.765Z,72.31
2018-09-19T22:35:17.152Z,72.28
2018-09-19T22:37:45.580Z,72.86
2018-09-19T22:40:14.038Z,72.81
2018-09-19T22:42:42.747Z,73.54
2018-09-19T22:45:11.238Z,73.46
2018-09-19T22:47:40.859Z,73.41
2018-09-19T22:50:09.367Z,74.02
2018-09-19T22:52:38.217Z,73.63
2018-09-19T22:55:06.839Z,74.20
2018-09-19T22:57:35.328Z,75.00
2018-09-19T23:00:03.772Z,74.78
2018-09-19T23:02:32.803Z,75.34
2018-09-19T23:05:01.281Z,75.45
2018-09-19T23:07:29.772Z,76.08
2018-09-19T23:09:58.536Z,75.40
2018-09-19T23:12:27.409Z,75.54
2018-09-19T23:14:55.906Z,76.06
2018-09-19T23:17:24.393Z,76.08
2018-09-19T23:19:52.870Z,76.51
2018-09-19T23:22:21.414Z,76.53
2018-09-19T23:24:49.819Z,76.46
2018-09-19T23:27:19.012Z,76.94
2018-09-19T23:29:47.586Z,76.34
2018-09-19T23:32:16.065Z,77.23
2018-09-19T23:34:44.526Z,76.54
2018-09-19T23:37:13.003Z,76.50
2018-09-19T23:39:41.511Z,75.99
2018-09-19T23:42:10.884Z,76.04
2018-09-19T23:44:39.388Z,75.32
2018-09-19T23:47:08.460Z,76.02
2018-09-19T23:49:36.998Z,75.84
2018-09-19T23:52:05.591Z,76.42
2018-09-19T23:54:35.150Z,75.88
2018-09-19T23:57:04.088Z,76.43
2018-09-19T23:59:32.605Z,76.59
